aviador You're here:

KARG Decoded Metar

WALNUT RIDGE in AR, USA
Report Time2018-02-22 14:56:00
UTC Time2018-02-22 15:04:23
Flight Rules ifr IFR
Wind010° at 07 kt
W.Decomp.*RWY 36: 6.9 kt HW 1.1 kt RCW
RWY 04: 6.0 kt HW 3.6 kt LCW
RWY 31: 3.6 kt HW 6.0 kt RCW
W.Rank010° ranks 6
Current wind is above 010° avg. (6.9)
Visibility9999 m
Phenomena:N/A
Clouds:Overcast 005 Hf
Expected CloudBase > 400 ft AGL from Temp-Dew spread
Ceiling500 ft
Temp04°C (ISA -10)
Dew Point03°C (93% RH)
AAT-0.0°C
QNH1029 hPa
Density Alt-1,434 ft
Elevation272 ft
Report Wrong Elevation
Raw Report
KARG 221456Z AUTO 01007KT 8SM OVC005 04/03 A3040 RMK AO2 SLP297
T00390033 51016=

Extra information for KARG:More info

Metar Taf Metar & Taf Last 4 Metars F.Rules Stats Wind Profile Meteogram Temp Stats Airport Information Weather charts Add Link Nearby VenuesMetar ALERT Operation Metar Decoded Social comments

AIRNAV info for KARG